Nearby METAR Reports

 

KHFD - Hartford/Brainar, Connecticut, USA
Distance from station: ESE 5mi, 8km
Updated: Sun, 26-Jun-2022 12:53am EDT
Clear
Clear
 Wind from S
Wind: S 6 mph , 9 km/h
Temperature: 72°F , 22°C
Dew Point: 64°F , 18°C
Humidity: 78%
Barometer: 30.09 inHg , 1019 hPa
Clouds: Clear
Visibility: 10 miles , 16 km
2022/06/26 04:53 KHFD 260453Z AUTO 17005KT 10SM CLR 22/18 A3009 RMK AO2 SLP190 T02220178 403280172
KBDL - Windsor Locks, Connecticut, USA
Distance from station: NNE 12mi, 20km
Updated: Sun, 26-Jun-2022 12:51am EDT
Clear
Clear
 Wind from WSW
Wind: WSW 3 mph , 6 km/h
Temperature: 73°F , 23°C
Dew Point: 63°F , 17°C
Humidity: 69%
Barometer: 30.10 inHg , 1019.3 hPa
Clouds: Clear
Visibility: 10 miles , 16 km
2022/06/26 04:51 KBDL 260451Z 24003KT 10SM CLR 23/17 A3010 RMK AO2 SLP191 T02280167 403220161
 
KMMK - Meriden, Connecticut, USA
Distance from station: SSW 18mi, 28km
Updated: Sun, 26-Jun-2022 12:53am EDT
Clear
Clear
 Wind from calm
Wind: Calm
Temperature: 66°F , 19°C
Dew Point: 61°F , 16°C
Humidity: 83%
Barometer: 30.11 inHg , 1019.6 hPa
Clouds: Clear
Visibility: 10 miles , 16 km
2022/06/26 04:53 KMMK 260453Z AUTO 00000KT 10SM CLR 19/16 A3011 RMK AO2 SLP194 T01890161 403220150
KBAF - Westfield, Massachusetts, USA
Distance from station: N 28mi, 45km
Updated: Sun, 26-Jun-2022 12:53am EDT
Clear
Clear
 Wind from calm
Wind: Calm
Temperature: 66°F , 19°C
Dew Point: 63°F , 17°C
Humidity: 88%
Barometer: 30.10 inHg , 1019.3 hPa
Clouds: Clear
Visibility: 10 miles , 16 km
2022/06/26 04:53 KBAF 260453Z AUTO 00000KT 10SM CLR 19/17 A3010 RMK AO2 SLP190 T01890167 403220150
 
KIJD - Willimantic, Connecticut, USA
Distance from station: E 29mi, 46km
Updated: Sun, 26-Jun-2022 12:52am EDT
Clear
Clear
 Wind from calm
Wind: Calm
Temperature: 66°F , 19°C
Dew Point: 64°F , 18°C
Humidity: 94%
Barometer: 30.12 inHg , 1020 hPa
Clouds: Clear
Visibility: 10 miles , 16 km
2022/06/26 04:52 KIJD 260452Z AUTO 00000KT 10SM CLR 19/18 A3012 RMK AO2 SLP196 T01890183 403110150
KOXC - Oxford/Waterbury, Connecticut, USA
Distance from station: SW 29mi, 46km
Updated: Sun, 26-Jun-2022 12:51am EDT
Clear
Clear
 Wind from calm
Wind: Calm
Temperature: 70°F , 21°C
Dew Point: 63°F , 17°C
Humidity: 78%
Barometer: 30.14 inHg , 1020.7 hPa
Clouds: Clear
Visibility: 10 miles , 16 km
2022/06/26 04:51 KOXC 260451Z AUTO 00000KT 10SM CLR 21/17 A3014 RMK AO2 SLP213 T02060167 403000150
 
KSNC - Chester, Connecticut, USA
Distance from station: SSE 29mi, 47km
Updated: Sun, 26-Jun-2022 1:15am EDT
Clear
Clear
 Wind from WSW
Wind: WSW 5 mph , 7 km/h
Temperature: 70°F , 21°C
Dew Point: 64°F , 18°C
Humidity: 83%
Barometer: 30.12 inHg , 1020 hPa
Clouds: Clear
Visibility: 10 miles , 16 km
2022/06/26 05:15 KSNC 260515Z AUTO 24004KT 10SM CLR 21/18 A3012 RMK AO2
KCEF - Chicopee/Westove, Massachusetts, USA
Distance from station: NNE 32mi, 52km
Updated: Sun, 26-Jun-2022 12:56am EDT
Clear
Clear
 Wind from calm
Wind: Calm
Temperature: 64°F , 18°C
Dew Point: 64°F , 18°C
Humidity: 100%
Barometer: 30.09 inHg , 1019 hPa
Clouds: Clear
Visibility: 10 miles , 16 km
2022/06/26 04:56 KCEF 260456Z AUTO 00000KT 10SM CLR 18/18 A3009 RMK AO2 SLP194 T01800180 403240141
 
KHVN - New Haven/Tweed, Connecticut, USA
Distance from station: S 35mi, 56km
Updated: Sun, 26-Jun-2022 12:53am EDT
Clear
Clear
 Wind from calm
Wind: Calm
Temperature: 68°F , 20°C
Dew Point: 64°F , 18°C
Humidity: 88%
Barometer: 30.11 inHg , 1019.6 hPa
Clouds: Clear
Visibility: 9 miles , 14 km
2022/06/26 04:53 KHVN 260453Z AUTO 00000KT 9SM CLR 20/18 A3011 RMK AO2 SLP195 T02000183 403000172
KBDR - Bridgeport, Connecticut, USA
Distance from station: SSW 46mi, 74km
Updated: Sun, 26-Jun-2022 12:52am EDT
Clear
Clear
 Wind from calm
Wind: Calm
Temperature: 72°F , 22°C
Dew Point: 64°F , 18°C
Humidity: 78%
Barometer: 30.11 inHg , 1019.6 hPa
Clouds: Clear
Visibility: 10 miles , 16 km
2022/06/26 04:52 KBDR 260452Z AUTO 00000KT 10SM CLR 22/18 A3011 RMK AO2 SLP194 T02170178 403060172
 
KGON - Groton/New Londo, Connecticut, USA
Distance from station: SE 46mi, 75km
Updated: Sun, 26-Jun-2022 12:56am EDT
Mist, Clear
Mist, Clear
 Wind from calm
Wind: Calm
Temperature: 66°F , 19°C
Dew Point: 63°F , 17°C
Humidity: 88%
Barometer: 30.11 inHg , 1019.6 hPa
Summary: Mist
Clouds: Clear
Visibility: 4 miles , 6 km
2022/06/26 04:56 KGON 260456Z AUTO 00000KT 4SM BR CLR 19/17 A3011 RMK AO2 SLP195 T01890172 402720161
KDXR - Danbury, Connecticut, USA
Distance from station: SW 47mi, 76km
Updated: Sun, 26-Jun-2022 12:53am EDT
Clear
Clear
 Wind from WSW
Wind: WSW 3 mph , 6 km/h
Temperature: 66°F , 19°C
Dew Point: 63°F , 17°C
Humidity: 88%
Barometer: 30.14 inHg , 1020.7 hPa
Clouds: Clear
Visibility: 10 miles , 16 km
2022/06/26 04:53 KDXR 260453Z AUTO 24003KT 10SM CLR 19/17 A3014 RMK AO2 SLP200 T01890167 403170156
 
KPSF - Pittsfield, Massachusetts, USA
Distance from station: NNW 54mi, 87km
Updated: Sun, 26-Jun-2022 12:54am EDT
Clear
Clear
 Wind from SE
Wind: SE 3 mph , 6 km/h
Temperature: 59°F , 15°C
Dew Point: 57°F , 14°C
Humidity: 94%
Barometer: 30.14 inHg , 1020.7 hPa
Clouds: Clear
Visibility: 10 miles , 16 km
2022/06/26 04:54 KPSF 260454Z AUTO 13003KT 10SM CLR 15/14 A3014 RMK AO2 SLP183 T01500139 403000117
KWST - Westerly, Rhode Island, USA
Distance from station: ESE 56mi, 91km
Updated: Sun, 26-Jun-2022 12:53am EDT
Clear
Clear
 Wind from calm
Wind: Calm
Temperature: 64°F , 18°C
Dew Point: 63°F , 17°C
Humidity: 94%
Barometer: 30.12 inHg , 1020 hPa
Clouds: Clear
Visibility: 8 miles , 13 km
2022/06/26 04:53 KWST 260453Z AUTO 00000KT 8SM CLR 18/17 A3012 RMK AO2 SLP199 T01780167 402830150
 
KORH - Worcester, Massachusetts, USA
Distance from station: NE 57mi, 92km
Updated: Sun, 26-Jun-2022 12:54am EDT
Clear
Clear
 Wind from W
Wind: W 8 mph , 13 km/h
Temperature: 70°F , 21°C
Dew Point: 63°F , 17°C
Humidity: 78%
Barometer: 30.14 inHg , 1020.7 hPa
Clouds: Clear
Visibility: 10 miles , 16 km
2022/06/26 04:54 KORH 260454Z 26007KT 10SM CLR 21/17 A3014 RMK AO2 SLP201 T02110172 402940178 $
KPOU - Poughkeepsie, New York, USA
Distance from station: W 60mi, 96km
Updated: Sun, 26-Jun-2022 12:53am EDT
Clear
Clear
 Wind from calm
Wind: Calm
Temperature: 64°F , 18°C
Dew Point: 63°F , 17°C
Humidity: 94%
Barometer: 30.10 inHg , 1019.3 hPa
Clouds: Clear
Visibility: 10 miles , 16 km
2022/06/26 04:53 KPOU 260453Z 00000KT 10SM CLR 18/17 A3010 RMK AO2 SLP187 T01830167 403170150
 
KORE - Orange, Massachusetts, USA
Distance from station: NNE 60mi, 97km
Updated: Sun, 26-Jun-2022 12:52am EDT
Clear
Clear
 Wind from calm
Wind: Calm
Temperature: 64°F , 18°C
Dew Point: 63°F , 17°C
Humidity: 94%
Barometer: 30.13 inHg , 1020.3 hPa
Clouds: Clear
Visibility: 10 miles , 16 km
2022/06/26 04:52 KORE 260452Z AUTO 00000KT 10SM CLR 18/17 A3013 RMK AO2 SLP202 T01830172 403280128
KHTO - East Hampton, New York, USA
Distance from station: SSE 62mi, 99km
Updated: Sat, 21-May-2022 1:35pm EDT
NOT Current
Clear
Clear
 Wind from WNW
Wind: WNW 5 mph , 7 km/h
Temperature: 81°F , 27°C
Heat Index: 83°F , 28°C
Dew Point: 66°F , 19°C
Humidity: 62%
Barometer: 30.00 inHg , 1015.9 hPa
Clouds: Clear
Visibility: 10 miles , 16 km
2022/05/21 17:35 KHTO 211735Z AUTO 30004KT 10SM CLR 27/19 A3000 RMK AO2 T02670193
 
KFOK - Westhampton Beac, New York, USA
Distance from station: S 63mi, 102km
Updated: Sun, 26-Jun-2022 12:53am EDT
Clear
Clear
 Wind from calm
Wind: Calm
Temperature: 63°F , 17°C
Dew Point: 61°F , 16°C
Humidity: 94%
Barometer: 30.13 inHg , 1020.3 hPa
Clouds: Clear
Visibility: 9 miles , 14 km
2022/06/26 04:53 KFOK 260453Z AUTO 00000KT 9SM CLR 17/16 A3013 RMK AO2 SLP203 T01670156 402940139 $
KMTP - Montauk, New York, USA
Distance from station: SE 64mi, 104km
Updated: Sun, 26-Jun-2022 12:54am EDT

 Wind from calm
Wind: Calm
Temperature: 68°F , 20°C
Dew Point: 66°F , 19°C
Humidity: 94%
Barometer: 30.13 inHg , 1020.3 hPa
2022/06/26 04:54 KMTP 260454Z AUTO 00000KT 20/19 A3013 RMK AO1 SLP202 T02000194 402780178